createdAt,value
2022-11-04T00:01:05.051Z,65.08
2022-11-04T00:06:08.383Z,65.01
2022-11-04T00:11:29.969Z,64.98
2022-11-04T00:16:50.157Z,64.99
2022-11-04T00:22:10.777Z,65.18
2022-11-04T00:27:33.858Z,65.29
2022-11-04T00:32:59.827Z,65.13
2022-11-04T00:38:02.444Z,65.26
2022-11-04T00:43:06.393Z,65.23
2022-11-04T00:48:09.631Z,65.16
2022-11-04T00:53:12.706Z,65.35
2022-11-04T00:58:16.650Z,65.46
2022-11-04T01:03:19.231Z,65.45
2022-11-04T01:08:21.883Z,65.43
2022-11-04T01:13:25.868Z,65.58
2022-11-04T01:18:29.070Z,65.56
2022-11-04T01:23:32.043Z,65.55
2022-11-04T01:28:36.003Z,65.62
2022-11-04T01:33:39.036Z,65.70
2022-11-04T01:38:41.764Z,65.59
2022-11-04T01:43:50.396Z,65.59
2022-11-04T01:48:53.701Z,65.64
2022-11-04T01:53:57.741Z,65.69
2022-11-04T01:59:07.894Z,65.64
2022-11-04T02:04:27.113Z,65.67
2022-11-04T02:09:32.360Z,65.54
2022-11-04T02:14:37.488Z,65.52
2022-11-04T02:20:13.008Z,65.64
2022-11-04T02:25:33.422Z,65.61
2022-11-04T02:30:47.634Z,65.62
2022-11-04T02:36:01.660Z,65.65
2022-11-04T02:41:14.712Z,65.64
2022-11-04T02:46:24.425Z,65.58
2022-11-04T02:51:32.218Z,65.61
2022-11-04T02:56:39.751Z,65.65
2022-11-04T03:01:47.838Z,65.73
2022-11-04T03:06:55.050Z,65.76
2022-11-04T03:12:03.686Z,65.66
2022-11-04T03:17:15.500Z,65.84
2022-11-04T03:22:21.000Z,66.02
2022-11-04T03:27:32.652Z,66.05
2022-11-04T03:32:43.806Z,66.20
2022-11-04T03:37:48.824Z,66.23
2022-11-04T03:42:57.088Z,66.33
2022-11-04T03:48:01.915Z,66.40
2022-11-04T03:53:04.710Z,66.70
2022-11-04T03:58:16.777Z,66.77
2022-11-04T04:03:28.232Z,67.02
2022-11-04T04:08:38.465Z,67.14
2022-11-04T04:13:46.951Z,67.14
2022-11-04T04:18:58.480Z,67.10
2022-11-04T04:24:23.736Z,67.34
2022-11-04T04:29:28.895Z,67.42
2022-11-04T04:34:34.367Z,67.39
2022-11-04T04:39:58.952Z,67.44
2022-11-04T04:45:07.137Z,67.30
2022-11-04T04:50:12.899Z,67.35
2022-11-04T04:55:16.691Z,67.38
2022-11-04T05:00:21.491Z,67.42
2022-11-04T05:05:25.573Z,67.45
2022-11-04T05:10:28.191Z,67.62
2022-11-04T05:15:31.671Z,67.67
2022-11-04T05:20:39.071Z,67.76
2022-11-04T05:25:42.581Z,67.75
2022-11-04T05:30:45.257Z,67.80
2022-11-04T05:35:49.261Z,68.06
2022-11-04T05:40:51.892Z,67.94
2022-11-04T05:45:54.697Z,68.08
2022-11-04T05:50:58.751Z,68.16
2022-11-04T05:56:01.380Z,68.31
2022-11-04T06:01:15.218Z,68.44
2022-11-04T06:06:19.240Z,68.34
2022-11-04T06:11:23.348Z,68.36
2022-11-04T06:16:26.674Z,68.32
2022-11-04T06:21:31.939Z,68.41
2022-11-04T06:26:34.726Z,68.43
2022-11-04T06:31:37.403Z,68.41
2022-11-04T06:36:41.437Z,68.62
2022-11-04T06:41:45.483Z,68.61
2022-11-04T06:46:50.110Z,68.84
2022-11-04T06:51:54.176Z,68.84
2022-11-04T06:56:56.757Z,68.83
2022-11-04T07:01:59.597Z,69.02
2022-11-04T07:07:03.639Z,69.07
2022-11-04T07:12:06.800Z,68.86
2022-11-04T07:17:09.410Z,69.12
2022-11-04T07:22:13.539Z,69.14
2022-11-04T07:27:16.213Z,69.19
2022-11-04T07:32:18.834Z,69.17
2022-11-04T07:37:22.765Z,69.43
2022-11-04T07:42:25.373Z,69.34
2022-11-04T07:47:31.610Z,69.35
2022-11-04T07:52:35.712Z,69.41
2022-11-04T07:57:38.461Z,69.31
2022-11-04T08:02:41.245Z,69.01
2022-11-04T08:07:45.378Z,68.95
2022-11-04T08:12:48.064Z,64.26
2022-11-04T08:17:50.758Z,64.09
2022-11-04T08:22:54.829Z,64.59
2022-11-04T08:28:00.849Z,65.71
2022-11-04T08:33:05.317Z,66.14
2022-11-04T08:38:09.319Z,66.56
2022-11-04T08:43:12.408Z,66.55
2022-11-04T08:48:16.432Z,67.17
2022-11-04T08:53:20.621Z,67.28
2022-11-04T08:58:24.700Z,66.87
2022-11-04T09:03:27.355Z,66.89
2022-11-04T09:08:31.751Z,66.97
2022-11-04T09:13:39.365Z,66.86
2022-11-04T09:18:43.474Z,67.04
2022-11-04T09:23:47.667Z,67.14
2022-11-04T09:28:54.475Z,67.48
2022-11-04T09:33:57.876Z,68.14
2022-11-04T09:39:01.811Z,68.16
2022-11-04T09:44:19.943Z,68.22
2022-11-04T09:49:23.980Z,68.11
2022-11-04T09:54:33.828Z,68.27
2022-11-04T09:59:36.529Z,63.96
2022-11-04T10:04:53.560Z,62.80
2022-11-04T10:10:07.643Z,65.43
2022-11-04T10:15:45.724Z,65.57
2022-11-04T10:20:58.139Z,65.75
2022-11-04T10:26:11.768Z,65.77
2022-11-04T10:31:17.175Z,66.00
2022-11-04T10:36:21.425Z,66.24
2022-11-04T10:41:31.728Z,66.53
2022-11-04T10:46:48.620Z,67.09
2022-11-04T10:51:51.449Z,67.15
2022-11-04T10:56:56.871Z,67.33
2022-11-04T11:02:01.840Z,67.53
2022-11-04T11:07:06.701Z,67.45
2022-11-04T11:17:47.949Z,68.52
2022-11-04T11:22:51.853Z,69.04
2022-11-04T11:27:59.439Z,69.49
2022-11-04T11:33:07.069Z,70.23
2022-11-04T11:38:19.869Z,71.46
2022-11-04T11:43:27.998Z,71.33
2022-11-04T11:48:33.474Z,71.52
2022-11-04T11:53:45.528Z,71.50
2022-11-04T12:09:54.500Z,71.42
2022-11-04T12:15:23.818Z,71.09
2022-11-04T12:20:36.396Z,70.70
2022-11-04T12:25:48.770Z,70.32
2022-11-04T12:31:06.160Z,70.00
2022-11-04T12:36:31.596Z,69.33
2022-11-04T12:42:14.286Z,68.95
2022-11-04T12:47:18.742Z,68.52
2022-11-04T12:52:35.439Z,68.46
2022-11-04T12:57:47.549Z,68.39
2022-11-04T13:02:55.709Z,68.37
2022-11-04T13:08:14.089Z,68.20
2022-11-04T13:13:21.993Z,68.02
2022-11-04T13:18:29.685Z,67.68
2022-11-04T13:23:38.327Z,67.62
2022-11-04T13:28:42.966Z,67.24
2022-11-04T13:33:55.732Z,67.08
2022-11-04T13:39:03.404Z,67.12
2022-11-04T13:44:15.691Z,66.83
2022-11-04T13:49:30.331Z,66.69
2022-11-04T13:54:36.978Z,66.83
2022-11-04T13:59:40.337Z,66.60
2022-11-04T14:04:45.733Z,66.66
2022-11-04T14:09:54.828Z,66.67
2022-11-04T14:15:05.746Z,66.28
2022-11-04T14:20:22.620Z,66.34
2022-11-04T14:25:38.216Z,66.15
2022-11-04T14:30:47.661Z,65.99
2022-11-04T14:35:53.199Z,66.18
2022-11-04T14:41:15.387Z,66.33
2022-11-04T14:46:24.482Z,66.28
2022-11-04T14:51:30.879Z,66.17
2022-11-04T14:56:34.057Z,66.21
2022-11-04T15:01:39.702Z,66.03
2022-11-04T15:06:59.225Z,65.96
2022-11-04T15:12:28.075Z,65.82
2022-11-04T15:17:33.809Z,65.96
2022-11-04T15:22:47.072Z,65.88
2022-11-04T15:27:50.690Z,65.95
2022-11-04T15:32:59.831Z,65.88
2022-11-04T15:38:04.786Z,65.88
2022-11-04T15:43:08.138Z,65.81
2022-11-04T15:48:39.748Z,65.88
2022-11-04T15:53:53.433Z,66.00
2022-11-04T15:58:58.328Z,65.78
2022-11-04T16:04:02.944Z,65.72
2022-11-04T16:09:23.210Z,65.88
2022-11-04T16:14:27.434Z,65.73
2022-11-04T16:19:32.175Z,65.74
2022-11-04T16:24:38.572Z,65.79
2022-11-04T16:29:46.785Z,65.72
2022-11-04T16:34:53.520Z,65.65
2022-11-04T16:39:57.815Z,65.73
2022-11-04T16:45:03.210Z,65.61
2022-11-04T16:50:15.345Z,65.44
2022-11-04T16:55:19.892Z,65.33
2022-11-04T17:00:24.893Z,65.41
2022-11-04T17:05:27.891Z,65.43
2022-11-04T17:10:32.500Z,65.26
2022-11-04T17:15:35.142Z,64.83
2022-11-04T17:20:37.834Z,64.97
2022-11-04T17:25:43.267Z,64.70
2022-11-04T17:30:47.272Z,64.86
2022-11-04T17:35:51.818Z,64.42
2022-11-04T17:41:24.729Z,64.15
2022-11-04T17:46:37.974Z,61.29
2022-11-04T17:51:42.694Z,60.93
2022-11-04T17:56:46.947Z,59.58
2022-11-04T18:01:49.752Z,59.13
2022-11-04T18:06:58.417Z,59.50
2022-11-04T18:12:25.486Z,58.87
2022-11-04T18:17:28.117Z,57.76
2022-11-04T18:22:30.911Z,58.00
2022-11-04T18:27:35.060Z,57.89
2022-11-04T18:32:39.530Z,57.88
2022-11-04T18:37:47.114Z,57.63
2022-11-04T18:42:51.640Z,57.02
2022-11-04T18:47:54.511Z,57.61
2022-11-04T18:52:57.429Z,57.06
2022-11-04T18:58:01.538Z,56.25
2022-11-04T19:03:04.312Z,55.64
2022-11-04T19:08:07.499Z,57.87
2022-11-04T19:13:20.904Z,58.85
2022-11-04T19:18:23.750Z,59.17
2022-11-04T19:23:26.577Z,59.76
2022-11-04T19:28:46.854Z,60.64
2022-11-04T19:33:51.031Z,61.11
2022-11-04T19:38:55.117Z,61.69
2022-11-04T19:43:59.519Z,61.90
2022-11-04T19:49:02.665Z,62.36
2022-11-04T19:54:06.896Z,62.45
2022-11-04T19:59:12.334Z,62.73
2022-11-04T20:04:15.010Z,62.73
2022-11-04T20:09:17.693Z,62.95
2022-11-04T20:14:21.777Z,63.15
2022-11-04T20:19:24.672Z,63.41
2022-11-04T20:24:27.329Z,63.48
2022-11-04T20:29:31.293Z,63.43
2022-11-04T20:34:34.375Z,63.51
2022-11-04T20:39:37.080Z,63.50
2022-11-04T20:44:41.067Z,63.61
2022-11-04T20:49:44.712Z,63.62
2022-11-04T20:54:49.818Z,63.60
2022-11-04T20:59:53.899Z,63.57
2022-11-04T21:04:56.523Z,63.53
2022-11-04T21:09:59.490Z,63.43
2022-11-04T21:15:03.456Z,63.60
2022-11-04T21:20:07.026Z,63.60
2022-11-04T21:25:10.058Z,63.43
2022-11-04T21:30:14.688Z,63.51
2022-11-04T21:35:17.411Z,63.51
2022-11-04T21:40:22.436Z,63.42
2022-11-04T21:45:27.247Z,63.50
2022-11-04T21:50:30.375Z,63.44
2022-11-04T21:55:33.023Z,63.34
2022-11-04T22:00:37.056Z,63.49
2022-11-04T22:05:39.637Z,63.60
2022-11-04T22:10:42.242Z,63.43
2022-11-04T22:16:01.663Z,63.74
2022-11-04T22:21:06.513Z,63.68
2022-11-04T22:26:12.306Z,63.75
2022-11-04T22:31:18.733Z,64.04
2022-11-04T22:36:22.721Z,64.32
2022-11-04T22:41:27.946Z,64.30
2022-11-04T22:46:33.502Z,64.43
2022-11-04T22:51:36.286Z,64.65
2022-11-04T22:56:39.062Z,64.55
2022-11-04T23:01:43.128Z,64.87
2022-11-04T23:06:45.838Z,65.04
2022-11-04T23:12:06.294Z,65.23
2022-11-04T23:17:45.591Z,65.36
2022-11-04T23:23:05.914Z,65.36
2022-11-04T23:28:29.115Z,65.50
2022-11-04T23:33:49.652Z,65.78
2022-11-04T23:38:52.289Z,65.96
2022-11-04T23:43:54.892Z,66.13
2022-11-04T23:49:22.434Z,66.18
2022-11-04T23:54:42.842Z,66.51
